createdAt,value
2023-01-30T00:01:20.495Z,0.55
2023-01-30T00:03:47.504Z,0.54
2023-01-30T00:06:14.776Z,0.38
2023-01-30T00:08:41.655Z,0.45
2023-01-30T00:11:12.341Z,0.29
2023-01-30T00:13:40.549Z,0.46
2023-01-30T00:16:09.771Z,0.37
2023-01-30T00:18:38.045Z,0.33
2023-01-30T00:21:07.853Z,0.21
2023-01-30T00:23:36.242Z,0.08
2023-01-30T00:26:04.742Z,-0.04
2023-01-30T00:28:32.087Z,0.10
2023-01-30T00:30:58.927Z,0.13
2023-01-30T00:33:27.156Z,0.13
2023-01-30T00:35:56.385Z,0.12
2023-01-30T00:38:24.612Z,0.07
2023-01-30T00:40:51.788Z,0.00
2023-01-30T00:43:39.561Z,0.08
2023-01-30T00:46:35.628Z,0.03
2023-01-30T00:49:02.485Z,0.04
2023-01-30T00:51:29.325Z,0.00
2023-01-30T00:53:56.218Z,-0.02
2023-01-30T00:56:23.050Z,-0.05
2023-01-30T00:58:49.899Z,-0.07
2023-01-30T01:01:16.813Z,-0.17
2023-01-30T01:03:43.791Z,-0.16
2023-01-30T01:06:10.903Z,-0.18
2023-01-30T01:08:37.761Z,-0.17
2023-01-30T01:11:04.740Z,-0.19
2023-01-30T01:13:31.684Z,-0.19
2023-01-30T01:15:58.579Z,-0.22
2023-01-30T01:18:25.467Z,-0.25
2023-01-30T01:20:52.346Z,-0.29
2023-01-30T01:23:19.138Z,-0.33
2023-01-30T01:25:45.959Z,-0.38
2023-01-30T01:28:12.787Z,-0.39
2023-01-30T01:30:39.640Z,-0.42
2023-01-30T01:33:06.487Z,-0.42
2023-01-30T01:35:33.305Z,-0.46
2023-01-30T01:38:00.187Z,-0.43
2023-01-30T01:40:45.417Z,-0.46
2023-01-30T01:43:24.735Z,-0.50
2023-01-30T01:46:21.115Z,-0.58
2023-01-30T01:48:55.005Z,-0.56
2023-01-30T01:51:39.044Z,-0.65
2023-01-30T01:54:23.941Z,-0.52
2023-01-30T01:56:51.500Z,-0.54
2023-01-30T01:59:33.443Z,-0.65
2023-01-30T02:02:13.058Z,-0.52
2023-01-30T02:05:06.483Z,-0.60
2023-01-30T02:07:47.170Z,-0.54
2023-01-30T02:10:22.786Z,-0.55
2023-01-30T02:12:51.818Z,-0.61
2023-01-30T02:15:20.219Z,-0.56
2023-01-30T02:17:47.400Z,-0.63
2023-01-30T02:20:43.059Z,-0.57
2023-01-30T02:23:18.714Z,-0.54
2023-01-30T02:26:24.591Z,-0.58
2023-01-30T02:29:35.073Z,-0.44
2023-01-30T02:32:16.408Z,-0.61
2023-01-30T02:35:15.136Z,-0.43
2023-01-30T02:37:52.261Z,-0.52
2023-01-30T02:41:08.177Z,-0.39
2023-01-30T02:44:26.123Z,-0.33
2023-01-30T02:47:04.333Z,-0.33
2023-01-30T02:49:52.878Z,-0.32
2023-01-30T02:52:21.793Z,-0.33
2023-01-30T02:54:48.649Z,-0.36
2023-01-30T02:57:24.881Z,-0.43
2023-01-30T03:00:01.245Z,-0.45
2023-01-30T03:02:52.494Z,-0.47
2023-01-30T03:05:58.357Z,-0.41
2023-01-30T03:08:37.149Z,-0.41
2023-01-30T03:11:09.594Z,-0.41
2023-01-30T03:13:45.959Z,-0.36
2023-01-30T03:16:26.824Z,-0.38
2023-01-30T03:18:53.918Z,-0.41
2023-01-30T03:21:20.751Z,-0.40
2023-01-30T03:23:47.795Z,-0.43
2023-01-30T03:26:20.918Z,-0.38
2023-01-30T03:28:50.525Z,-0.42
2023-01-30T03:31:17.605Z,-0.37
2023-01-30T03:33:44.667Z,-0.33
2023-01-30T03:36:11.869Z,-0.36
2023-01-30T03:38:38.797Z,-0.28
2023-01-30T03:41:05.862Z,-0.26
2023-01-30T03:43:32.811Z,-0.30
2023-01-30T03:45:59.744Z,-0.18
2023-01-30T03:48:26.603Z,-0.11
2023-01-30T03:50:53.462Z,-0.15
2023-01-30T03:53:20.299Z,-0.15
2023-01-30T03:55:47.282Z,-0.16
2023-01-30T03:58:14.064Z,-0.16
2023-01-30T04:00:40.976Z,-0.36
2023-01-30T04:03:07.904Z,-0.29
2023-01-30T04:05:34.748Z,-0.27
2023-01-30T04:08:01.620Z,-0.22
2023-01-30T04:10:28.457Z,-0.18
2023-01-30T04:12:55.381Z,-0.16
2023-01-30T04:15:22.289Z,-0.36
2023-01-30T04:17:49.098Z,-0.24
2023-01-30T04:20:16.537Z,-0.16
2023-01-30T04:22:43.331Z,-0.03
2023-01-30T04:25:10.281Z,-0.08
2023-01-30T04:27:37.245Z,-0.01
2023-01-30T04:30:05.104Z,0.04
2023-01-30T04:32:31.954Z,0.14
2023-01-30T04:34:58.799Z,0.10
2023-01-30T04:37:25.638Z,0.03
2023-01-30T04:39:52.460Z,0.26
2023-01-30T04:42:19.295Z,0.33
2023-01-30T04:44:46.213Z,0.18
2023-01-30T04:47:13.037Z,0.20
2023-01-30T04:49:39.915Z,0.23
2023-01-30T04:52:06.788Z,-0.09
2023-01-30T04:54:34.045Z,0.08
2023-01-30T04:57:00.963Z,-0.08
2023-01-30T04:59:27.771Z,0.14
2023-01-30T05:01:55.318Z,-0.02
2023-01-30T05:04:22.223Z,-0.01
2023-01-30T05:06:49.074Z,-0.19
2023-01-30T05:09:15.937Z,0.08
2023-01-30T05:11:42.980Z,0.14
2023-01-30T05:14:09.806Z,-0.03
2023-01-30T05:16:36.613Z,0.14
2023-01-30T05:19:03.453Z,0.00
2023-01-30T05:21:30.308Z,0.13
2023-01-30T05:23:57.871Z,0.29
2023-01-30T05:26:25.303Z,0.41
2023-01-30T05:28:57.463Z,0.30
2023-01-30T05:31:24.666Z,0.09
2023-01-30T05:33:52.482Z,0.40
2023-01-30T05:36:22.343Z,0.37
2023-01-30T05:38:49.201Z,0.40
2023-01-30T05:41:17.358Z,0.31
2023-01-30T05:43:44.848Z,0.50
2023-01-30T05:46:13.499Z,0.35
2023-01-30T05:48:40.415Z,0.42
2023-01-30T05:51:07.340Z,0.36
2023-01-30T05:53:35.075Z,0.40
2023-01-30T05:56:06.167Z,0.33
2023-01-30T05:58:33.676Z,0.43
2023-01-30T06:01:02.588Z,0.53
2023-01-30T06:03:31.230Z,0.58
2023-01-30T06:05:58.465Z,0.62
2023-01-30T06:08:25.431Z,0.58
2023-01-30T06:10:52.488Z,0.70
2023-01-30T06:13:19.520Z,0.70
2023-01-30T06:15:46.812Z,0.79
2023-01-30T06:18:13.639Z,0.73
2023-01-30T06:20:40.544Z,1.06
2023-01-30T06:23:07.343Z,0.74
2023-01-30T06:25:34.229Z,0.92
2023-01-30T06:28:01.056Z,1.13
2023-01-30T06:30:27.948Z,0.90
2023-01-30T06:32:54.783Z,1.02
2023-01-30T06:35:21.658Z,1.33
2023-01-30T06:37:48.468Z,1.38
2023-01-30T06:40:15.381Z,1.14
2023-01-30T06:42:49.641Z,1.11
2023-01-30T06:45:19.497Z,1.53
2023-01-30T06:47:51.786Z,1.54
2023-01-30T06:50:21.958Z,1.61
2023-01-30T06:52:50.786Z,1.56
2023-01-30T06:55:23.662Z,1.61
2023-01-30T06:58:01.344Z,1.73
2023-01-30T07:00:28.178Z,1.55
2023-01-30T07:02:54.996Z,1.83
2023-01-30T07:05:21.838Z,1.79
2023-01-30T07:07:48.677Z,1.58
2023-01-30T07:10:15.853Z,1.81
2023-01-30T07:12:42.691Z,1.59
2023-01-30T07:15:09.990Z,1.57
2023-01-30T07:17:36.859Z,1.57
2023-01-30T07:20:04.032Z,1.84
2023-01-30T07:22:30.888Z,1.96
2023-01-30T07:24:57.671Z,2.06
2023-01-30T07:27:24.560Z,1.84
2023-01-30T07:29:52.505Z,1.97
2023-01-30T07:32:20.021Z,2.13
2023-01-30T07:34:47.770Z,2.32
2023-01-30T07:37:14.872Z,2.62
2023-01-30T07:39:42.051Z,2.22
2023-01-30T07:42:08.894Z,2.34
2023-01-30T07:44:35.805Z,2.02
2023-01-30T07:47:02.715Z,2.58
2023-01-30T07:49:29.663Z,2.38
2023-01-30T07:51:56.488Z,2.68
2023-01-30T07:54:23.405Z,2.50
2023-01-30T07:56:50.272Z,2.43
2023-01-30T07:59:17.153Z,2.67
2023-01-30T08:01:43.964Z,2.63
2023-01-30T08:04:11.455Z,2.74
2023-01-30T08:06:39.579Z,3.02
2023-01-30T08:09:07.323Z,2.85
2023-01-30T08:11:34.876Z,2.82
2023-01-30T08:14:02.196Z,2.95
2023-01-30T08:16:32.018Z,2.56
2023-01-30T08:18:59.132Z,3.17
2023-01-30T08:21:26.301Z,3.20
2023-01-30T08:23:53.199Z,3.61
2023-01-30T08:26:20.567Z,4.00
2023-01-30T08:28:47.496Z,4.41
2023-01-30T08:31:16.140Z,4.02
2023-01-30T08:33:43.389Z,4.15
2023-01-30T08:36:10.614Z,3.80
2023-01-30T08:38:37.507Z,3.85
2023-01-30T08:41:08.284Z,3.87
2023-01-30T08:43:35.810Z,3.91
2023-01-30T08:46:03.256Z,4.06
2023-01-30T08:48:40.030Z,4.41
2023-01-30T08:51:14.726Z,3.97
2023-01-30T08:53:41.721Z,4.66
2023-01-30T08:56:08.642Z,5.23
2023-01-30T08:58:35.502Z,6.22
2023-01-30T09:01:07.004Z,6.95
2023-01-30T09:03:33.844Z,7.04
2023-01-30T09:06:00.745Z,7.50
2023-01-30T09:08:27.594Z,6.70
2023-01-30T09:11:02.998Z,7.07
2023-01-30T09:13:30.989Z,7.74
2023-01-30T09:15:58.761Z,8.07
2023-01-30T09:18:26.203Z,5.87
2023-01-30T09:20:53.874Z,5.84
2023-01-30T09:23:21.017Z,6.02
2023-01-30T09:25:47.960Z,5.97
2023-01-30T09:28:14.912Z,6.13
2023-01-30T09:30:41.954Z,6.14
2023-01-30T09:33:08.844Z,6.07
2023-01-30T09:35:35.727Z,6.56
2023-01-30T09:38:04.218Z,6.39
2023-01-30T09:40:33.322Z,6.43
2023-01-30T09:43:22.714Z,6.90
2023-01-30T09:46:35.121Z,6.61
2023-01-30T09:49:29.915Z,6.58
2023-01-30T09:52:46.574Z,6.68
2023-01-30T09:55:20.999Z,6.60
2023-01-30T09:57:49.674Z,7.54
2023-01-30T10:00:39.427Z,7.96
2023-01-30T10:03:08.879Z,9.18
2023-01-30T10:05:45.070Z,10.22
2023-01-30T10:08:38.949Z,9.47
2023-01-30T10:11:42.518Z,8.22
2023-01-30T10:14:49.720Z,7.91
2023-01-30T10:17:46.766Z,8.49
2023-01-30T10:20:33.080Z,7.61
2023-01-30T10:23:21.334Z,7.63
2023-01-30T10:25:55.083Z,8.52
2023-01-30T10:28:37.734Z,8.80
2023-01-30T10:31:11.468Z,8.84
2023-01-30T10:34:04.569Z,8.36
2023-01-30T10:36:58.030Z,7.66
2023-01-30T10:39:54.943Z,8.26
2023-01-30T10:42:38.882Z,9.22
2023-01-30T10:45:20.509Z,9.38
2023-01-30T10:48:10.532Z,9.95
2023-01-30T10:50:58.685Z,9.89
2023-01-30T10:54:02.916Z,8.73
2023-01-30T10:57:13.324Z,10.59
2023-01-30T10:59:55.321Z,9.78
2023-01-30T11:02:30.762Z,10.44
2023-01-30T11:05:03.655Z,9.36
2023-01-30T11:07:33.482Z,9.45
2023-01-30T11:10:00.778Z,8.72
2023-01-30T11:12:27.707Z,8.53
2023-01-30T11:15:00.321Z,8.49
2023-01-30T11:17:45.100Z,8.05
2023-01-30T11:20:17.807Z,8.24
2023-01-30T11:23:07.460Z,7.97
2023-01-30T11:26:10.504Z,7.70
2023-01-30T11:28:43.785Z,7.85
2023-01-30T11:31:40.991Z,7.63
2023-01-30T11:34:21.088Z,8.05
2023-01-30T11:36:49.529Z,7.88
2023-01-30T11:39:17.591Z,7.28
2023-01-30T11:41:54.177Z,7.09
2023-01-30T11:44:28.390Z,7.29
2023-01-30T11:47:00.932Z,7.24
2023-01-30T11:49:46.847Z,7.02
2023-01-30T11:52:22.515Z,7.12
2023-01-30T11:54:50.036Z,6.62
2023-01-30T11:57:19.650Z,6.12
2023-01-30T11:59:55.556Z,6.94
2023-01-30T12:02:38.030Z,6.60
2023-01-30T12:05:16.587Z,6.88
2023-01-30T12:07:48.302Z,6.59
2023-01-30T12:10:24.233Z,6.43
2023-01-30T12:13:00.023Z,6.70
2023-01-30T12:15:31.767Z,6.24
2023-01-30T12:18:04.110Z,6.32
2023-01-30T12:21:02.249Z,6.46
2023-01-30T12:23:42.383Z,6.62
2023-01-30T12:26:30.956Z,6.49
2023-01-30T12:29:22.735Z,5.94
2023-01-30T12:32:15.171Z,6.38
2023-01-30T12:34:45.544Z,6.31
2023-01-30T12:37:38.392Z,6.52
2023-01-30T12:40:24.416Z,6.34
2023-01-30T12:43:28.355Z,6.40
2023-01-30T12:46:15.109Z,6.25
2023-01-30T12:49:13.983Z,6.25
2023-01-30T12:52:07.545Z,6.22
2023-01-30T12:54:43.686Z,6.37
2023-01-30T12:57:40.736Z,6.46
2023-01-30T13:00:28.900Z,6.43
2023-01-30T13:03:43.514Z,6.81
2023-01-30T13:06:48.109Z,7.11
2023-01-30T13:09:44.472Z,6.67
2023-01-30T13:12:32.220Z,6.33
2023-01-30T13:15:22.981Z,6.32
2023-01-30T13:18:31.181Z,6.30
2023-01-30T13:21:20.363Z,6.53
2023-01-30T13:24:14.701Z,5.59
2023-01-30T13:26:43.139Z,5.97
2023-01-30T13:29:39.154Z,6.08
2023-01-30T13:32:19.475Z,5.98
2023-01-30T13:34:48.574Z,6.02
2023-01-30T13:37:19.045Z,5.92
2023-01-30T13:39:59.858Z,5.56
2023-01-30T13:42:47.000Z,5.81
2023-01-30T13:45:28.972Z,6.20
2023-01-30T13:48:19.939Z,6.03
2023-01-30T13:50:59.225Z,5.85
2023-01-30T13:53:40.475Z,5.81
2023-01-30T13:56:39.716Z,5.72
2023-01-30T13:59:30.596Z,6.09
2023-01-30T14:02:03.161Z,5.87
2023-01-30T14:04:42.126Z,5.90
2023-01-30T14:07:14.667Z,5.45
2023-01-30T14:10:03.273Z,5.70
2023-01-30T14:12:41.934Z,5.90
2023-01-30T14:15:21.185Z,5.81
2023-01-30T14:18:20.279Z,5.61
2023-01-30T14:20:49.795Z,5.80
2023-01-30T14:23:22.557Z,5.71
2023-01-30T14:25:53.115Z,5.69
2023-01-30T14:28:19.863Z,5.26
2023-01-30T14:30:54.811Z,5.43
2023-01-30T14:33:21.542Z,5.47
2023-01-30T14:35:58.594Z,5.59
2023-01-30T14:38:27.928Z,5.72
2023-01-30T14:41:00.879Z,5.85
2023-01-30T14:43:42.949Z,5.50
2023-01-30T14:46:18.600Z,5.60
2023-01-30T14:48:50.935Z,5.51
2023-01-30T14:51:43.438Z,5.42
2023-01-30T14:54:13.820Z,5.52
2023-01-30T14:56:59.768Z,5.50
2023-01-30T14:59:36.967Z,5.62
2023-01-30T15:02:12.531Z,5.56
2023-01-30T15:05:25.480Z,5.47
2023-01-30T15:08:11.819Z,5.44
2023-01-30T15:10:48.046Z,5.72
2023-01-30T15:13:35.633Z,5.59
2023-01-30T15:16:28.308Z,5.23
2023-01-30T15:19:19.538Z,5.44
2023-01-30T15:22:29.494Z,5.44
2023-01-30T15:25:11.175Z,5.24
2023-01-30T15:28:03.748Z,5.20
2023-01-30T15:30:57.208Z,4.92
2023-01-30T15:33:31.375Z,4.66
2023-01-30T15:36:00.255Z,4.80
2023-01-30T15:38:35.033Z,5.04
2023-01-30T15:41:04.975Z,4.95
2023-01-30T15:44:02.603Z,4.75
2023-01-30T15:46:56.858Z,4.95
2023-01-30T15:50:07.323Z,4.71
2023-01-30T15:52:44.275Z,4.92
2023-01-30T15:55:37.018Z,4.61
2023-01-30T15:58:10.196Z,4.50
2023-01-30T16:00:41.536Z,4.56
2023-01-30T16:03:14.717Z,4.53
2023-01-30T16:05:51.716Z,4.79
2023-01-30T16:08:24.118Z,4.53
2023-01-30T16:10:52.017Z,4.24
2023-01-30T16:13:21.088Z,3.90
2023-01-30T16:16:18.290Z,4.14
2023-01-30T16:18:51.666Z,4.34
2023-01-30T16:21:24.512Z,4.02
2023-01-30T16:24:03.058Z,4.36
2023-01-30T16:26:32.483Z,4.15
2023-01-30T16:29:18.361Z,4.15
2023-01-30T16:31:48.122Z,4.24
2023-01-30T16:34:37.556Z,4.37
2023-01-30T16:37:30.892Z,4.40
2023-01-30T16:40:21.606Z,4.41
2023-01-30T16:43:02.023Z,4.44
2023-01-30T16:45:34.592Z,4.72
2023-01-30T16:48:16.828Z,4.90
2023-01-30T16:50:45.775Z,4.82
2023-01-30T16:53:18.786Z,4.84
2023-01-30T16:56:09.835Z,4.71
2023-01-30T16:58:38.694Z,4.74
2023-01-30T17:01:08.420Z,4.78
2023-01-30T17:03:39.995Z,4.84
2023-01-30T17:06:21.526Z,4.84
2023-01-30T17:08:55.143Z,4.71
2023-01-30T17:11:40.998Z,4.73
2023-01-30T17:14:19.701Z,4.84
2023-01-30T17:17:08.033Z,5.04
2023-01-30T17:19:36.210Z,5.13
2023-01-30T17:22:07.442Z,5.14
2023-01-30T17:24:36.221Z,5.18
2023-01-30T17:27:04.561Z,4.73
2023-01-30T17:29:49.151Z,4.79
2023-01-30T17:32:16.550Z,4.98
2023-01-30T17:34:43.589Z,5.06
2023-01-30T17:37:23.379Z,4.50
2023-01-30T17:39:50.235Z,4.80
2023-01-30T17:42:18.577Z,4.92
2023-01-30T17:44:45.448Z,5.06
2023-01-30T17:47:12.897Z,5.28
2023-01-30T17:49:40.377Z,5.10
2023-01-30T17:52:07.771Z,5.31
2023-01-30T17:54:34.647Z,4.91
2023-01-30T17:57:05.175Z,4.95
2023-01-30T17:59:32.552Z,5.09
2023-01-30T18:02:00.028Z,5.01
2023-01-30T18:04:26.891Z,5.10
2023-01-30T18:06:59.268Z,4.84
2023-01-30T18:09:26.891Z,4.79
2023-01-30T18:11:53.862Z,4.97
2023-01-30T18:14:22.766Z,5.04
2023-01-30T18:16:49.914Z,4.94
2023-01-30T18:19:18.538Z,4.76
2023-01-30T18:21:45.601Z,4.96
2023-01-30T18:24:13.938Z,5.11
2023-01-30T18:26:41.939Z,4.93
2023-01-30T18:29:12.545Z,5.01
2023-01-30T18:31:40.770Z,4.88
2023-01-30T18:34:10.288Z,5.07
2023-01-30T18:36:38.425Z,4.94
2023-01-30T18:39:06.240Z,5.10
2023-01-30T18:41:35.232Z,4.93
2023-01-30T18:44:05.735Z,5.04
2023-01-30T18:46:33.929Z,4.92
2023-01-30T18:49:00.911Z,4.93
2023-01-30T18:51:34.071Z,5.02
2023-01-30T18:54:01.903Z,4.80
2023-01-30T18:56:35.215Z,4.62
2023-01-30T18:59:04.440Z,5.11
2023-01-30T19:01:42.536Z,4.83
2023-01-30T19:04:12.659Z,5.15
2023-01-30T19:06:42.891Z,5.24
2023-01-30T19:09:15.112Z,5.18
2023-01-30T19:12:00.308Z,5.28
2023-01-30T19:14:27.151Z,4.83
2023-01-30T19:16:54.547Z,4.91
2023-01-30T19:19:22.005Z,4.68
2023-01-30T19:21:50.546Z,5.13
2023-01-30T19:24:17.719Z,5.13
2023-01-30T19:26:45.568Z,5.19
2023-01-30T19:29:12.465Z,5.35
2023-01-30T19:31:39.851Z,5.00
2023-01-30T19:34:07.542Z,4.96
2023-01-30T19:36:36.181Z,5.14
2023-01-30T19:39:06.202Z,5.08
2023-01-30T19:41:37.209Z,4.95
2023-01-30T19:44:07.286Z,4.97
2023-01-30T19:46:35.004Z,5.13
2023-01-30T19:49:03.405Z,5.05
2023-01-30T19:51:34.104Z,5.22
2023-01-30T19:54:06.176Z,5.21
2023-01-30T19:56:34.314Z,5.11
2023-01-30T19:59:02.427Z,5.33
2023-01-30T20:01:32.926Z,5.23
2023-01-30T20:04:02.501Z,5.35
2023-01-30T20:06:32.326Z,5.28
2023-01-30T20:09:05.549Z,4.87
2023-01-30T20:11:35.847Z,5.24
2023-01-30T20:14:04.808Z,5.11
2023-01-30T20:16:31.951Z,5.10
2023-01-30T20:19:05.970Z,5.23
2023-01-30T20:21:33.519Z,5.33
2023-01-30T20:24:01.084Z,5.30
2023-01-30T20:26:31.629Z,5.57
2023-01-30T20:28:58.833Z,5.40
2023-01-30T20:31:28.671Z,5.31
2023-01-30T20:33:57.712Z,5.30
2023-01-30T20:36:27.167Z,5.55
2023-01-30T20:38:55.969Z,5.28
2023-01-30T20:41:26.203Z,5.40
2023-01-30T20:43:57.445Z,5.50
2023-01-30T20:46:28.787Z,5.64
2023-01-30T20:48:58.509Z,5.45
2023-01-30T20:51:28.868Z,5.42
2023-01-30T20:54:06.873Z,5.55
2023-01-30T20:56:46.412Z,5.52
2023-01-30T20:59:17.428Z,5.57
2023-01-30T21:01:44.947Z,5.56
2023-01-30T21:04:16.228Z,5.60
2023-01-30T21:06:46.174Z,5.50
2023-01-30T21:09:18.618Z,5.20
2023-01-30T21:11:46.200Z,5.34
2023-01-30T21:14:13.284Z,5.27
2023-01-30T21:16:40.629Z,5.37
2023-01-30T21:19:13.883Z,5.24
2023-01-30T21:21:50.069Z,5.43
2023-01-30T21:24:20.274Z,5.62
2023-01-30T21:26:48.136Z,5.48
2023-01-30T21:29:19.275Z,5.69
2023-01-30T21:31:46.705Z,5.28
2023-01-30T21:34:14.335Z,5.34
2023-01-30T21:36:41.488Z,5.40
2023-01-30T21:39:32.186Z,5.35
2023-01-30T21:42:19.699Z,5.53
2023-01-30T21:44:47.469Z,5.20
2023-01-30T21:47:14.532Z,5.47
2023-01-30T21:49:43.904Z,5.27
2023-01-30T21:52:11.742Z,5.21
2023-01-30T21:54:39.100Z,5.32
2023-01-30T21:57:16.284Z,5.36
2023-01-30T21:59:44.286Z,5.45
2023-01-30T22:02:11.248Z,5.30
2023-01-30T22:04:38.054Z,5.42
2023-01-30T22:07:06.833Z,5.42
2023-01-30T22:09:33.866Z,5.47
2023-01-30T22:12:00.669Z,5.65
2023-01-30T22:14:27.506Z,5.37
2023-01-30T22:16:54.659Z,5.52
2023-01-30T22:19:21.619Z,5.46
2023-01-30T22:21:48.438Z,5.32
2023-01-30T22:24:15.324Z,5.41
2023-01-30T22:26:42.169Z,5.68
2023-01-30T22:29:09.400Z,5.23
2023-01-30T22:31:40.308Z,5.40
2023-01-30T22:34:07.189Z,5.56
2023-01-30T22:36:35.200Z,5.47
2023-01-30T22:39:02.605Z,5.64
2023-01-30T22:41:34.759Z,5.45
2023-01-30T22:44:04.757Z,5.69
2023-01-30T22:46:36.143Z,5.51
2023-01-30T22:49:05.709Z,5.16
2023-01-30T22:51:39.779Z,5.51
2023-01-30T22:54:10.777Z,5.53
2023-01-30T22:56:46.799Z,5.70
2023-01-30T22:59:14.549Z,5.75
2023-01-30T23:01:46.835Z,5.66
2023-01-30T23:04:16.759Z,5.51
2023-01-30T23:06:44.455Z,5.70
2023-01-30T23:09:16.656Z,5.54
2023-01-30T23:12:12.014Z,5.69
2023-01-30T23:14:39.458Z,5.64
2023-01-30T23:17:26.248Z,5.72
2023-01-30T23:19:54.350Z,5.33
2023-01-30T23:22:21.477Z,5.40
2023-01-30T23:24:48.745Z,5.37
2023-01-30T23:27:15.822Z,5.33
2023-01-30T23:29:42.951Z,5.42
2023-01-30T23:32:09.883Z,5.55
2023-01-30T23:34:36.814Z,5.61
2023-01-30T23:37:03.633Z,5.34
2023-01-30T23:39:30.445Z,5.40
2023-01-30T23:41:57.232Z,5.42
2023-01-30T23:44:24.205Z,5.57
2023-01-30T23:46:51.064Z,5.61
2023-01-30T23:49:17.972Z,5.52
2023-01-30T23:51:45.918Z,5.52
2023-01-30T23:54:14.117Z,5.58
2023-01-30T23:56:43.827Z,5.53
2023-01-30T23:59:12.075Z,5.64
